sensor_id;sensor_type;location;lat;lon;timestamp;pressure;altitude;pressure_sealevel;temperature;humidity
83100;BME280;72972;51.784;4.660;2023-12-28T00:00:28;101002.44;;;9.78;86.72
83100;BME280;72972;51.784;4.660;2023-12-28T00:02:54;100990.31;;;9.72;87.29
83100;BME280;72972;51.784;4.660;2023-12-28T00:05:19;100989.13;;;9.75;87.32
83100;BME280;72972;51.784;4.660;2023-12-28T00:07:45;100999.31;;;9.81;86.86
83100;BME280;72972;51.784;4.660;2023-12-28T00:10:10;101003.94;;;9.80;87.26
83100;BME280;72972;51.784;4.660;2023-12-28T00:12:36;101000.91;;;9.75;87.31
83100;BME280;72972;51.784;4.660;2023-12-28T00:15:02;101004.31;;;9.77;87.13
83100;BME280;72972;51.784;4.660;2023-12-28T00:17:27;101017.81;;;9.79;87.26
83100;BME280;72972;51.784;4.660;2023-12-28T00:19:53;101031.50;;;9.79;87.30
83100;BME280;72972;51.784;4.660;2023-12-28T00:22:18;101009.31;;;9.74;87.21
83100;BME280;72972;51.784;4.660;2023-12-28T00:24:44;101018.69;;;9.79;86.93
83100;BME280;72972;51.784;4.660;2023-12-28T00:27:09;101016.94;;;9.78;87.47
83100;BME280;72972;51.784;4.660;2023-12-28T00:29:35;101023.38;;;9.71;87.09
83100;BME280;72972;51.784;4.660;2023-12-28T00:32:05;101026.97;;;9.71;87.31
83100;BME280;72972;51.784;4.660;2023-12-28T00:34:31;101040.97;;;9.76;87.22
83100;BME280;72972;51.784;4.660;2023-12-28T00:36:56;101020.19;;;9.67;87.14
83100;BME280;72972;51.784;4.660;2023-12-28T00:39:22;101033.50;;;9.70;86.95
83100;BME280;72972;51.784;4.660;2023-12-28T00:41:47;101027.53;;;9.67;87.22
83100;BME280;72972;51.784;4.660;2023-12-28T00:44:13;101029.91;;;9.70;86.71
83100;BME280;72972;51.784;4.660;2023-12-28T00:46:39;101027.03;;;9.63;87.37
83100;BME280;72972;51.784;4.660;2023-12-28T00:49:04;101038.41;;;9.75;86.73
83100;BME280;72972;51.784;4.660;2023-12-28T00:51:30;101029.13;;;9.61;86.69
83100;BME280;72972;51.784;4.660;2023-12-28T00:53:55;101042.09;;;9.67;86.51
83100;BME280;72972;51.784;4.660;2023-12-28T00:56:21;101047.94;;;9.64;86.31
83100;BME280;72972;51.784;4.660;2023-12-28T00:58:46;101047.06;;;9.64;86.47
83100;BME280;72972;51.784;4.660;2023-12-28T01:01:12;101039.41;;;9.59;86.38
83100;BME280;72972;51.784;4.660;2023-12-28T01:03:37;101055.66;;;9.61;86.53
83100;BME280;72972;51.784;4.660;2023-12-28T01:06:04;101037.06;;;9.56;86.09
83100;BME280;72972;51.784;4.660;2023-12-28T01:08:30;101045.09;;;9.58;86.77
83100;BME280;72972;51.784;4.660;2023-12-28T01:10:55;101050.75;;;9.56;86.91
83100;BME280;72972;51.784;4.660;2023-12-28T01:13:21;101047.31;;;9.54;87.21
83100;BME280;72972;51.784;4.660;2023-12-28T01:15:47;101046.19;;;9.49;86.92
83100;BME280;72972;51.784;4.660;2023-12-28T01:18:12;101054.16;;;9.58;86.85
83100;BME280;72972;51.784;4.660;2023-12-28T01:20:38;101047.31;;;9.54;87.30
83100;BME280;72972;51.784;4.660;2023-12-28T01:23:03;101049.25;;;9.54;86.66
83100;BME280;72972;51.784;4.660;2023-12-28T01:25:30;101031.09;;;9.53;87.69
83100;BME280;72972;51.784;4.660;2023-12-28T01:27:56;101043.66;;;9.62;86.27
83100;BME280;72972;51.784;4.660;2023-12-28T01:30:21;101044.34;;;9.64;87.01
83100;BME280;72972;51.784;4.660;2023-12-28T01:32:47;101035.81;;;9.59;86.63
83100;BME280;72972;51.784;4.660;2023-12-28T01:35:12;101041.41;;;9.65;86.38
83100;BME280;72972;51.784;4.660;2023-12-28T01:37:38;101037.44;;;9.68;86.43
83100;BME280;72972;51.784;4.660;2023-12-28T01:40:04;101041.03;;;9.68;87.27
83100;BME280;72972;51.784;4.660;2023-12-28T01:42:30;101048.31;;;9.76;86.33
83100;BME280;72972;51.784;4.660;2023-12-28T01:44:57;101038.31;;;9.68;85.73
83100;BME280;72972;51.784;4.660;2023-12-28T01:47:24;101032.72;;;9.62;86.60
83100;BME280;72972;51.784;4.660;2023-12-28T01:49:50;101051.44;;;9.73;86.54
83100;BME280;72972;51.784;4.660;2023-12-28T01:52:16;101049.06;;;9.70;87.22
83100;BME280;72972;51.784;4.660;2023-12-28T01:54:42;101067.88;;;9.73;86.43
83100;BME280;72972;51.784;4.660;2023-12-28T01:57:08;101058.41;;;9.75;86.58
83100;BME280;72972;51.784;4.660;2023-12-28T01:59:34;101054.66;;;9.76;86.62
83100;BME280;72972;51.784;4.660;2023-12-28T02:02:00;101063.91;;;9.75;86.61
83100;BME280;72972;51.784;4.660;2023-12-28T02:04:25;101058.41;;;9.75;86.65
83100;BME280;72972;51.784;4.660;2023-12-28T02:06:58;101065.63;;;9.76;87.19
83100;BME280;72972;51.784;4.660;2023-12-28T02:09:24;101069.00;;;9.78;86.65
83100;BME280;72972;51.784;4.660;2023-12-28T02:11:51;101053.91;;;9.82;85.86
83100;BME280;72972;51.784;4.660;2023-12-28T02:14:17;101041.53;;;9.72;86.71
83100;BME280;72972;51.784;4.660;2023-12-28T02:22:05;101048.88;;;9.71;86.46
83100;BME280;72972;51.784;4.660;2023-12-28T02:24:32;101059.56;;;9.81;85.99
83100;BME280;72972;51.784;4.660;2023-12-28T02:26:58;101051.91;;;9.76;86.31
83100;BME280;72972;51.784;4.660;2023-12-28T02:29:23;101055.31;;;9.78;86.32
83100;BME280;72972;51.784;4.660;2023-12-28T02:31:57;101042.66;;;9.77;86.22
83100;BME280;72972;51.784;4.660;2023-12-28T02:34:28;101049.44;;;9.81;86.29
83100;BME280;72972;51.784;4.660;2023-12-28T02:36:56;101050.50;;;9.80;86.11
83100;BME280;72972;51.784;4.660;2023-12-28T02:39:22;101054.47;;;9.78;85.97
83100;BME280;72972;51.784;4.660;2023-12-28T02:41:50;101045.59;;;9.76;86.16
83100;BME280;72972;51.784;4.660;2023-12-28T02:44:15;101057.41;;;9.76;85.88
83100;BME280;72972;51.784;4.660;2023-12-28T02:46:41;101025.84;;;9.66;86.73
83100;BME280;72972;51.784;4.660;2023-12-28T02:49:06;101046.81;;;9.73;86.22
83100;BME280;72972;51.784;4.660;2023-12-28T02:51:32;101046.63;;;9.75;86.10
83100;BME280;72972;51.784;4.660;2023-12-28T02:53:57;101069.38;;;9.75;87.03
83100;BME280;72972;51.784;4.660;2023-12-28T02:56:23;101067.69;;;9.74;86.25
83100;BME280;72972;51.784;4.660;2023-12-28T02:58:48;101072.09;;;9.75;86.77
83100;BME280;72972;51.784;4.660;2023-12-28T03:01:14;101068.91;;;9.72;86.35
83100;BME280;72972;51.784;4.660;2023-12-28T03:03:39;101053.69;;;9.69;86.43
83100;BME280;72972;51.784;4.660;2023-12-28T03:06:05;101081.00;;;9.77;86.14
83100;BME280;72972;51.784;4.660;2023-12-28T03:08:30;101061.16;;;9.75;85.99
83100;BME280;72972;51.784;4.660;2023-12-28T03:10:56;101046.69;;;9.67;86.25
83100;BME280;72972;51.784;4.660;2023-12-28T03:13:21;101060.88;;;9.70;86.54
83100;BME280;72972;51.784;4.660;2023-12-28T03:15:47;101062.94;;;9.68;86.81
83100;BME280;72972;51.784;4.660;2023-12-28T03:18:12;101069.84;;;9.64;86.77
83100;BME280;72972;51.784;4.660;2023-12-28T03:20:38;101044.59;;;9.54;86.74
83100;BME280;72972;51.784;4.660;2023-12-28T03:23:03;101055.47;;;9.62;86.89
83100;BME280;72972;51.784;4.660;2023-12-28T03:25:29;101040.75;;;9.63;87.20
83100;BME280;72972;51.784;4.660;2023-12-28T03:27:55;101034.00;;;9.51;86.65
83100;BME280;72972;51.784;4.660;2023-12-28T03:30:20;101042.53;;;9.56;86.86
83100;BME280;72972;51.784;4.660;2023-12-28T03:32:46;101057.25;;;9.55;87.56
83100;BME280;72972;51.784;4.660;2023-12-28T03:35:11;101039.13;;;9.54;87.14
83100;BME280;72972;51.784;4.660;2023-12-28T03:37:37;101056.47;;;9.47;86.66
83100;BME280;72972;51.784;4.660;2023-12-28T03:40:03;101058.00;;;9.49;86.20
83100;BME280;72972;51.784;4.660;2023-12-28T03:42:29;101055.72;;;9.53;87.40
83100;BME280;72972;51.784;4.660;2023-12-28T03:44:54;101052.16;;;9.52;86.75
83100;BME280;72972;51.784;4.660;2023-12-28T03:47:20;101053.00;;;9.53;86.67
83100;BME280;72972;51.784;4.660;2023-12-28T03:49:45;101044.97;;;9.51;85.96
83100;BME280;72972;51.784;4.660;2023-12-28T03:52:11;101052.53;;;9.49;86.19
83100;BME280;72972;51.784;4.660;2023-12-28T03:54:36;101047.22;;;9.48;86.69
83100;BME280;72972;51.784;4.660;2023-12-28T03:57:02;101053.53;;;9.48;86.55
83100;BME280;72972;51.784;4.660;2023-12-28T03:59:27;101042.47;;;9.42;86.18
83100;BME280;72972;51.784;4.660;2023-12-28T04:01:53;101041.09;;;9.46;86.01
83100;BME280;72972;51.784;4.660;2023-12-28T04:04:18;101026.59;;;9.37;86.69
83100;BME280;72972;51.784;4.660;2023-12-28T04:06:44;101051.47;;;9.50;86.33
83100;BME280;72972;51.784;4.660;2023-12-28T04:09:13;101036.63;;;9.45;85.85
83100;BME280;72972;51.784;4.660;2023-12-28T04:11:38;101034.19;;;9.50;86.00
83100;BME280;72972;51.784;4.660;2023-12-28T04:14:04;101052.16;;;9.52;85.60
83100;BME280;72972;51.784;4.660;2023-12-28T04:16:29;101048.38;;;9.53;85.84
83100;BME280;72972;51.784;4.660;2023-12-28T04:18:55;101042.41;;;9.50;86.06
83100;BME280;72972;51.784;4.660;2023-12-28T04:21:21;101048.50;;;9.60;85.67
83100;BME280;72972;51.784;4.660;2023-12-28T04:23:47;101035.19;;;9.57;85.37
83100;BME280;72972;51.784;4.660;2023-12-28T04:26:18;101039.59;;;9.58;85.66
83100;BME280;72972;51.784;4.660;2023-12-28T04:28:44;101053.63;;;9.77;84.48
83100;BME280;72972;51.784;4.660;2023-12-28T04:31:10;101028.22;;;9.69;83.71
83100;BME280;72972;51.784;4.660;2023-12-28T04:33:35;101025.09;;;9.72;84.52
83100;BME280;72972;51.784;4.660;2023-12-28T04:36:02;101048.13;;;9.77;83.94
83100;BME280;72972;51.784;4.660;2023-12-28T04:38:31;101060.69;;;9.86;83.99
83100;BME280;72972;51.784;4.660;2023-12-28T04:40:57;101046.25;;;9.92;83.68
83100;BME280;72972;51.784;4.660;2023-12-28T04:43:22;101061.88;;;9.92;84.25
83100;BME280;72972;51.784;4.660;2023-12-28T04:45:51;101046.75;;;9.96;83.09
83100;BME280;72972;51.784;4.660;2023-12-28T04:48:16;101054.28;;;9.94;83.10
83100;BME280;72972;51.784;4.660;2023-12-28T04:50:47;101053.28;;;9.95;83.28
83100;BME280;72972;51.784;4.660;2023-12-28T04:53:13;101047.59;;;9.96;83.29
83100;BME280;72972;51.784;4.660;2023-12-28T04:55:38;101040.69;;;10.00;83.35
83100;BME280;72972;51.784;4.660;2023-12-28T04:58:07;101056.28;;;10.00;83.37
83100;BME280;72972;51.784;4.660;2023-12-28T05:00:32;101049.28;;;9.97;82.96
83100;BME280;72972;51.784;4.660;2023-12-28T05:02:58;101062.81;;;9.99;83.23
83100;BME280;72972;51.784;4.660;2023-12-28T05:05:23;101065.53;;;9.99;83.27
83100;BME280;72972;51.784;4.660;2023-12-28T05:07:49;101066.84;;;10.03;82.32
83100;BME280;72972;51.784;4.660;2023-12-28T05:10:14;101062.44;;;10.02;82.66
83100;BME280;72972;51.784;4.660;2023-12-28T05:12:40;101068.78;;;10.02;82.97
83100;BME280;72972;51.784;4.660;2023-12-28T05:15:06;101072.34;;;10.03;83.14
83100;BME280;72972;51.784;4.660;2023-12-28T05:17:31;101044.00;;;9.96;82.08
83100;BME280;72972;51.784;4.660;2023-12-28T05:19:57;101060.84;;;10.07;82.07
83100;BME280;72972;51.784;4.660;2023-12-28T05:22:22;101058.44;;;10.04;82.30
83100;BME280;72972;51.784;4.660;2023-12-28T05:24:48;101043.44;;;10.00;81.62
83100;BME280;72972;51.784;4.660;2023-12-28T05:27:14;101042.34;;;10.09;81.76
83100;BME280;72972;51.784;4.660;2023-12-28T05:29:39;101049.31;;;10.12;81.09
83100;BME280;72972;51.784;4.660;2023-12-28T05:32:05;101058.59;;;10.11;81.46
83100;BME280;72972;51.784;4.660;2023-12-28T05:34:31;101054.53;;;10.07;81.86
83100;BME280;72972;51.784;4.660;2023-12-28T05:36:56;101067.66;;;10.11;81.25
83100;BME280;72972;51.784;4.660;2023-12-28T05:39:22;101063.69;;;10.14;81.06
83100;BME280;72972;51.784;4.660;2023-12-28T05:41:47;101060.09;;;10.13;81.37
83100;BME280;72972;51.784;4.660;2023-12-28T05:44:16;101069.56;;;10.11;81.05
83100;BME280;72972;51.784;4.660;2023-12-28T05:46:41;101056.91;;;10.10;80.93
83100;BME280;72972;51.784;4.660;2023-12-28T05:49:07;101063.13;;;10.18;80.54
83100;BME280;72972;51.784;4.660;2023-12-28T05:51:39;101056.53;;;10.13;80.10
83100;BME280;72972;51.784;4.660;2023-12-28T05:54:08;101071.34;;;10.18;80.87
83100;BME280;72972;51.784;4.660;2023-12-28T05:56:34;101063.59;;;10.07;80.20
83100;BME280;72972;51.784;4.660;2023-12-28T05:58:59;101064.75;;;10.13;80.95
83100;BME280;72972;51.784;4.660;2023-12-28T06:01:25;101067.75;;;10.18;80.33
83100;BME280;72972;51.784;4.660;2023-12-28T06:03:51;101075.03;;;10.11;80.55
83100;BME280;72972;51.784;4.660;2023-12-28T06:06:18;101066.72;;;10.19;80.16
83100;BME280;72972;51.784;4.660;2023-12-28T06:08:44;101077.88;;;10.17;79.45
83100;BME280;72972;51.784;4.660;2023-12-28T06:11:09;101084.88;;;10.20;79.70
83100;BME280;72972;51.784;4.660;2023-12-28T06:13:35;101092.41;;;10.18;79.79
83100;BME280;72972;51.784;4.660;2023-12-28T06:16:01;101066.25;;;10.15;79.91
83100;BME280;72972;51.784;4.660;2023-12-28T06:18:26;101079.09;;;10.15;79.33
83100;BME280;72972;51.784;4.660;2023-12-28T06:20:52;101074.75;;;10.20;79.23
83100;BME280;72972;51.784;4.660;2023-12-28T06:23:17;101088.84;;;10.17;80.28
83100;BME280;72972;51.784;4.660;2023-12-28T06:25:43;101095.53;;;10.15;80.32
83100;BME280;72972;51.784;4.660;2023-12-28T06:28:09;101106.69;;;10.13;80.70
83100;BME280;72972;51.784;4.660;2023-12-28T06:30:34;101113.25;;;10.04;80.97
83100;BME280;72972;51.784;4.660;2023-12-28T06:33:00;101126.63;;;10.07;79.82
83100;BME280;72972;51.784;4.660;2023-12-28T06:35:25;101116.56;;;10.00;80.45
83100;BME280;72972;51.784;4.660;2023-12-28T06:37:51;101110.50;;;10.04;80.80
83100;BME280;72972;51.784;4.660;2023-12-28T06:40:16;101114.13;;;10.05;80.87
83100;BME280;72972;51.784;4.660;2023-12-28T06:42:44;101092.47;;;9.95;81.32
83100;BME280;72972;51.784;4.660;2023-12-28T06:45:10;101112.81;;;10.01;81.03
83100;BME280;72972;51.784;4.660;2023-12-28T06:47:35;101102.66;;;9.87;81.33
83100;BME280;72972;51.784;4.660;2023-12-28T06:50:01;101111.25;;;9.98;80.63
83100;BME280;72972;51.784;4.660;2023-12-28T06:52:26;101112.00;;;9.92;80.88
83100;BME280;72972;51.784;4.660;2023-12-28T06:54:55;101116.53;;;9.85;81.88
83100;BME280;72972;51.784;4.660;2023-12-28T06:57:20;101101.22;;;9.76;81.63
83100;BME280;72972;51.784;4.660;2023-12-28T06:59:46;101113.88;;;9.77;81.79
83100;BME280;72972;51.784;4.660;2023-12-28T07:02:14;101108.69;;;9.82;82.11
83100;BME280;72972;51.784;4.660;2023-12-28T07:04:40;101105.66;;;9.77;81.72
83100;BME280;72972;51.784;4.660;2023-12-28T07:07:06;101123.13;;;9.76;81.74
83100;BME280;72972;51.784;4.660;2023-12-28T07:09:31;101123.50;;;9.73;81.93
83100;BME280;72972;51.784;4.660;2023-12-28T07:11:56;101122.28;;;9.76;81.46
83100;BME280;72972;51.784;4.660;2023-12-28T07:14:22;101125.31;;;9.81;81.62
83100;BME280;72972;51.784;4.660;2023-12-28T07:16:47;101132.00;;;9.78;82.00
83100;BME280;72972;51.784;4.660;2023-12-28T07:19:13;101123.50;;;9.73;81.45
83100;BME280;72972;51.784;4.660;2023-12-28T07:21:38;101133.53;;;9.81;81.99
83100;BME280;72972;51.784;4.660;2023-12-28T07:24:04;101134.59;;;9.94;81.64
83100;BME280;72972;51.784;4.660;2023-12-28T07:26:30;101144.50;;;9.95;81.27
83100;BME280;72972;51.784;4.660;2023-12-28T07:28:55;101130.34;;;9.92;81.00
83100;BME280;72972;51.784;4.660;2023-12-28T07:31:29;101135.34;;;9.88;81.50
83100;BME280;72972;51.784;4.660;2023-12-28T07:33:56;101156.16;;;9.97;80.72
83100;BME280;72972;51.784;4.660;2023-12-28T07:36:22;101147.56;;;10.00;81.09
83100;BME280;72972;51.784;4.660;2023-12-28T07:38:50;101150.84;;;9.96;81.22
83100;BME280;72972;51.784;4.660;2023-12-28T07:41:16;101145.69;;;10.01;80.38
83100;BME280;72972;51.784;4.660;2023-12-28T07:43:42;101164.88;;;10.01;80.78
83100;BME280;72972;51.784;4.660;2023-12-28T07:46:07;101165.69;;;10.01;81.13
83100;BME280;72972;51.784;4.660;2023-12-28T07:48:33;101174.97;;;10.00;80.92
83100;BME280;72972;51.784;4.660;2023-12-28T07:51:04;101172.91;;;10.02;80.64
83100;BME280;72972;51.784;4.660;2023-12-28T07:53:29;101162.94;;;10.01;81.05
83100;BME280;72972;51.784;4.660;2023-12-28T07:55:55;101164.88;;;10.01;81.17
83100;BME280;72972;51.784;4.660;2023-12-28T07:58:21;101139.78;;;9.89;81.00
83100;BME280;72972;51.784;4.660;2023-12-28T08:00:47;101162.13;;;10.01;80.43
83100;BME280;72972;51.784;4.660;2023-12-28T08:03:12;101166.72;;;10.08;80.39
83100;BME280;72972;51.784;4.660;2023-12-28T08:05:41;101150.97;;;10.02;80.50
83100;BME280;72972;51.784;4.660;2023-12-28T08:08:06;101174.59;;;10.03;81.00
83100;BME280;72972;51.784;4.660;2023-12-28T08:10:33;101158.34;;;10.02;80.65
83100;BME280;72972;51.784;4.660;2023-12-28T08:12:58;101179.69;;;10.06;81.30
83100;BME280;72972;51.784;4.660;2023-12-28T08:15:23;101167.13;;;9.97;80.71
83100;BME280;72972;51.784;4.660;2023-12-28T08:17:49;101188.09;;;10.05;80.40
83100;BME280;72972;51.784;4.660;2023-12-28T08:20:14;101184.31;;;10.06;80.49
83100;BME280;72972;51.784;4.660;2023-12-28T08:22:40;101179.69;;;10.06;80.04
83100;BME280;72972;51.784;4.660;2023-12-28T08:25:06;101187.75;;;10.08;80.13
83100;BME280;72972;51.784;4.660;2023-12-28T08:27:31;101182.81;;;10.03;80.43
83100;BME280;72972;51.784;4.660;2023-12-28T08:29:57;101189.47;;;10.09;80.42
83100;BME280;72972;51.784;4.660;2023-12-28T08:32:22;101190.31;;;10.09;80.39
83100;BME280;72972;51.784;4.660;2023-12-28T08:34:48;101175.25;;;10.05;80.20
83100;BME280;72972;51.784;4.660;2023-12-28T08:37:14;101191.19;;;10.10;80.44
83100;BME280;72972;51.784;4.660;2023-12-28T08:39:40;101173.28;;;9.99;80.33
83100;BME280;72972;51.784;4.660;2023-12-28T08:42:05;101190.31;;;10.09;79.60
83100;BME280;72972;51.784;4.660;2023-12-28T08:44:31;101191.66;;;10.13;80.64
83100;BME280;72972;51.784;4.660;2023-12-28T08:46:58;101201.59;;;10.14;80.20
83100;BME280;72972;51.784;4.660;2023-12-28T08:49:23;101184.84;;;10.09;80.36
83100;BME280;72972;51.784;4.660;2023-12-28T08:51:49;101193.19;;;10.16;80.16
83100;BME280;72972;51.784;4.660;2023-12-28T08:54:14;101199.22;;;10.11;79.85
83100;BME280;72972;51.784;4.660;2023-12-28T08:56:42;101192.88;;;10.11;79.83
83100;BME280;72972;51.784;4.660;2023-12-28T08:59:14;101200.66;;;10.22;79.04
83100;BME280;72972;51.784;4.660;2023-12-28T09:01:40;101202.91;;;10.18;79.43
83100;BME280;72972;51.784;4.660;2023-12-28T09:04:05;101197.44;;;10.18;79.60
83100;BME280;72972;51.784;4.660;2023-12-28T09:06:31;101199.44;;;10.24;79.32
83100;BME280;72972;51.784;4.660;2023-12-28T09:08:57;101209.19;;;10.27;79.41
83100;BME280;72972;51.784;4.660;2023-12-28T09:11:23;101207.09;;;10.29;78.96
83100;BME280;72972;51.784;4.660;2023-12-28T09:13:49;101202.78;;;10.34;79.30
83100;BME280;72972;51.784;4.660;2023-12-28T09:16:15;101207.94;;;10.29;79.00
83100;BME280;72972;51.784;4.660;2023-12-28T09:18:41;101203.78;;;10.33;78.60
83100;BME280;72972;51.784;4.660;2023-12-28T09:21:08;101217.13;;;10.36;78.62
83100;BME280;72972;51.784;4.660;2023-12-28T09:23:34;101207.50;;;10.40;79.08
83100;BME280;72972;51.784;4.660;2023-12-28T09:26:02;101212.31;;;10.38;78.83
83100;BME280;72972;51.784;4.660;2023-12-28T09:28:32;101201.22;;;10.32;78.92
83100;BME280;72972;51.784;4.660;2023-12-28T09:30:58;101215.16;;;10.45;78.49
83100;BME280;72972;51.784;4.660;2023-12-28T09:33:23;101216.00;;;10.45;79.08
83100;BME280;72972;51.784;4.660;2023-12-28T09:35:49;101215.63;;;10.48;78.55
83100;BME280;72972;51.784;4.660;2023-12-28T09:38:15;101200.78;;;10.43;78.39
83100;BME280;72972;51.784;4.660;2023-12-28T09:40:43;101225.75;;;10.48;78.61
83100;BME280;72972;51.784;4.660;2023-12-28T09:43:26;101230.75;;;10.44;78.23
83100;BME280;72972;51.784;4.660;2023-12-28T09:45:59;101246.16;;;10.45;78.58
83100;BME280;72972;51.784;4.660;2023-12-28T09:48:28;101214.97;;;10.46;77.70
83100;BME280;72972;51.784;4.660;2023-12-28T09:50:55;101259.72;;;10.61;77.77
83100;BME280;72972;51.784;4.660;2023-12-28T09:53:25;101255.75;;;10.64;77.84
83100;BME280;72972;51.784;4.660;2023-12-28T09:55:51;101257.81;;;10.62;77.35
83100;BME280;72972;51.784;4.660;2023-12-28T09:58:18;101235.78;;;10.55;77.93
83100;BME280;72972;51.784;4.660;2023-12-28T10:00:46;101263.13;;;10.63;78.39
83100;BME280;72972;51.784;4.660;2023-12-28T10:03:15;101265.22;;;10.61;78.52
83100;BME280;72972;51.784;4.660;2023-12-28T10:05:42;101278.56;;;10.64;77.43
83100;BME280;72972;51.784;4.660;2023-12-28T10:08:10;101275.69;;;10.58;77.73
83100;BME280;72972;51.784;4.660;2023-12-28T10:10:36;101280.13;;;10.59;78.33
83100;BME280;72972;51.784;4.660;2023-12-28T10:13:02;101267.66;;;10.56;78.13
83100;BME280;72972;51.784;4.660;2023-12-28T10:15:28;101270.22;;;10.58;77.65
83100;BME280;72972;51.784;4.660;2023-12-28T10:18:00;101260.19;;;10.50;78.24
83100;BME280;72972;51.784;4.660;2023-12-28T10:20:27;101265.97;;;10.55;77.85
83100;BME280;72972;51.784;4.660;2023-12-28T10:22:53;101280.63;;;10.62;77.81
83100;BME280;72972;51.784;4.660;2023-12-28T10:25:18;101256.88;;;10.55;77.99
83100;BME280;72972;51.784;4.660;2023-12-28T10:27:44;101248.84;;;10.53;78.34
83100;BME280;72972;51.784;4.660;2023-12-28T10:30:10;101230.69;;;10.52;77.87
83100;BME280;72972;51.784;4.660;2023-12-28T10:32:39;101246.28;;;10.52;78.10
83100;BME280;72972;51.784;4.660;2023-12-28T10:35:05;101269.28;;;10.65;77.69
83100;BME280;72972;51.784;4.660;2023-12-28T10:37:32;101259.16;;;10.66;78.13
83100;BME280;72972;51.784;4.660;2023-12-28T10:40:00;101257.75;;;10.70;77.50
83100;BME280;72972;51.784;4.660;2023-12-28T10:42:37;101243.84;;;10.72;77.91
83100;BME280;72972;51.784;4.660;2023-12-28T10:45:10;101250.56;;;10.69;77.87
83100;BME280;72972;51.784;4.660;2023-12-28T10:47:42;101234.84;;;10.63;77.49
83100;BME280;72972;51.784;4.660;2023-12-28T10:50:10;101236.38;;;10.65;77.31
83100;BME280;72972;51.784;4.660;2023-12-28T10:52:39;101257.56;;;10.72;76.98
83100;BME280;72972;51.784;4.660;2023-12-28T10:57:58;101262.47;;;10.76;77.46
83100;BME280;72972;51.784;4.660;2023-12-28T11:00:26;101247.44;;;10.72;77.31
83100;BME280;72972;51.784;4.660;2023-12-28T11:02:58;101251.78;;;10.81;77.02
83100;BME280;72972;51.784;4.660;2023-12-28T11:05:28;101252.28;;;10.85;76.36
83100;BME280;72972;51.784;4.660;2023-12-28T11:07:55;101254.09;;;10.92;76.86
83100;BME280;72972;51.784;4.660;2023-12-28T11:10:26;101257.09;;;10.97;76.71
83100;BME280;72972;51.784;4.660;2023-12-28T11:12:56;101258.81;;;10.98;76.48
83100;BME280;72972;51.784;4.660;2023-12-28T11:15:23;101262.69;;;11.04;75.97
83100;BME280;72972;51.784;4.660;2023-12-28T11:17:52;101258.06;;;11.04;76.32
83100;BME280;72972;51.784;4.660;2023-12-28T11:20:19;101254.44;;;11.04;76.48
83100;BME280;72972;51.784;4.660;2023-12-28T11:22:46;101235.63;;;11.01;75.96
83100;BME280;72972;51.784;4.660;2023-12-28T11:25:18;101233.06;;;10.99;75.77
83100;BME280;72972;51.784;4.660;2023-12-28T11:27:45;101244.81;;;11.08;75.71
83100;BME280;72972;51.784;4.660;2023-12-28T11:30:12;101229.94;;;11.02;75.29
83100;BME280;72972;51.784;4.660;2023-12-28T11:32:42;101212.06;;;11.06;75.40
83100;BME280;72972;51.784;4.660;2023-12-28T11:35:11;101240.16;;;11.08;75.49
83100;BME280;72972;51.784;4.660;2023-12-28T11:37:41;101227.28;;;11.09;75.52
83100;BME280;72972;51.784;4.660;2023-12-28T11:40:17;101236.56;;;11.08;75.30
83100;BME280;72972;51.784;4.660;2023-12-28T11:42:52;101223.47;;;11.10;75.04
83100;BME280;72972;51.784;4.660;2023-12-28T11:45:19;101223.03;;;11.06;74.74
83100;BME280;72972;51.784;4.660;2023-12-28T11:48:06;101238.06;;;11.10;74.56
83100;BME280;72972;51.784;4.660;2023-12-28T11:50:33;101237.88;;;11.12;74.88
83100;BME280;72972;51.784;4.660;2023-12-28T11:52:59;101237.88;;;11.12;74.74
83100;BME280;72972;51.784;4.660;2023-12-28T11:55:25;101221.03;;;11.15;74.42
83100;BME280;72972;51.784;4.660;2023-12-28T11:57:50;101204.38;;;11.02;74.89
83100;BME280;72972;51.784;4.660;2023-12-28T12:00:21;101223.47;;;11.10;75.19
83100;BME280;72972;51.784;4.660;2023-12-28T12:02:50;101232.38;;;11.12;74.53
83100;BME280;72972;51.784;4.660;2023-12-28T12:05:18;101227.28;;;11.09;75.09
83100;BME280;72972;51.784;4.660;2023-12-28T12:07:49;101213.19;;;11.12;75.53
83100;BME280;72972;51.784;4.660;2023-12-28T12:10:15;101205.31;;;11.09;75.11
83100;BME280;72972;51.784;4.660;2023-12-28T12:12:42;101219.16;;;11.15;75.04
83100;BME280;72972;51.784;4.660;2023-12-28T12:15:08;101201.63;;;11.16;75.18
83100;BME280;72972;51.784;4.660;2023-12-28T12:17:34;101220.25;;;11.21;74.83
83100;BME280;72972;51.784;4.660;2023-12-28T12:20:00;101204.47;;;11.23;74.96
83100;BME280;72972;51.784;4.660;2023-12-28T12:22:34;101198.97;;;11.08;74.74
83100;BME280;72972;51.784;4.660;2023-12-28T12:25:02;101190.09;;;11.06;75.41
83100;BME280;72972;51.784;4.660;2023-12-28T12:27:37;101201.44;;;11.18;75.24
83100;BME280;72972;51.784;4.660;2023-12-28T12:30:08;101202.19;;;11.12;74.58
83100;BME280;72972;51.784;4.660;2023-12-28T12:32:35;101199.44;;;11.12;74.04
83100;BME280;72972;51.784;4.660;2023-12-28T12:35:05;101194.81;;;11.12;75.12
83100;BME280;72972;51.784;4.660;2023-12-28T12:37:31;101192.47;;;11.09;75.14
83100;BME280;72972;51.784;4.660;2023-12-28T12:39:57;101199.06;;;11.15;75.24
83100;BME280;72972;51.784;4.660;2023-12-28T12:42:23;101175.22;;;11.01;74.41
83100;BME280;72972;51.784;4.660;2023-12-28T12:44:49;101190.16;;;11.13;75.28
83100;BME280;72972;51.784;4.660;2023-12-28T12:47:15;101165.56;;;11.05;74.81
83100;BME280;72972;51.784;4.660;2023-12-28T12:49:46;101177.41;;;11.05;74.79
83100;BME280;72972;51.784;4.660;2023-12-28T12:52:12;101181.69;;;11.08;75.57
83100;BME280;72972;51.784;4.660;2023-12-28T12:54:38;101161.31;;;11.02;75.09
83100;BME280;72972;51.784;4.660;2023-12-28T12:57:04;101155.16;;;11.00;74.48
83100;BME280;72972;51.784;4.660;2023-12-28T12:59:30;101164.25;;;11.15;75.19